Time;durP1;ratioP1;P1;durP2;ratioP2;P2;SDS_P1;SDS_P2;PMS_P1;PMS_P2;Temp;Humidity;BMP_temperature;BMP_pressure;BME280_temperature;BME280_humidity;BME280_pressure;Samples;Min_cycle;Max_cycle;Signal;HPM_P1;HPM_P2
2024/01/21 00:01:51;;;;;;;6.07;1.80;;;;;;;;;;5236502;28;20083;-38
2024/01/21 00:04:23;;;;;;;5.28;1.58;;;;;;;;;;5237901;28;20452;-39
2024/01/21 00:06:55;;;;;;;3.65;1.75;;;;;;;;;;5069443;28;20133;-41
2024/01/21 00:10:27;;;;;;;5.10;1.65;;;;;;;;;;5053615;28;20798;-42
2024/01/21 00:14:54;;;;;;;5.45;1.73;;;;;;;;;;2026876;27;64341;-42
2024/01/21 00:16:36;;;;;;;2.95;1.70;;;;;;;;;;2043208;27;20939;-39
2024/01/21 00:17:37;;;;;;;3.15;1.75;;;;;;;;;;2072687;28;20060;-38
2024/01/21 00:18:39;;;;;;;2.83;1.30;;;;;;;;;;2015254;28;20041;-41
2024/01/21 00:19:40;;;;;;;3.95;1.75;;;;;;;;;;2072209;28;20190;-40
2024/01/21 00:20:41;;;;;;;3.47;1.83;;;;;;;;;;2073289;28;20507;-38
2024/01/21 00:21:42;;;;;;;4.13;1.40;;;;;;;;;;2078119;28;20046;-37
2024/01/21 00:22:43;;;;;;;5.22;2.10;;;;;;;;;;2053087;28;20449;-40
2024/01/21 00:23:46;;;;;;;3.97;1.50;;;;;;;;;;2071391;28;20040;-41
2024/01/21 00:24:47;;;;;;;4.15;1.58;;;;;;;;;;2070529;28;20761;-44
2024/01/21 00:25:48;;;;;;;2.63;1.42;;;;;;;;;;2071551;28;20044;-42
2024/01/21 00:26:49;;;;;;;2.83;1.45;;;;;;;;;;2071322;28;20046;-38
2024/01/21 00:27:51;;;;;;;2.38;1.42;;;;;;;;;;2042465;28;50188;-40
2024/01/21 00:28:52;;;;;;;5.40;1.70;;;;;;;;;;2079576;28;20480;-40
2024/01/21 00:29:53;;;;;;;3.15;1.60;;;;;;;;;;2077577;28;20405;-40
2024/01/21 00:31:29;;;;;;;2.90;1.60;;;;;;;;;;2065025;27;21655;-43
2024/01/21 18:06:57;;;;;;;9.70;6.22;;;;;;;;;;2041580;27;20397;-58
2024/01/21 18:07:59;;;;;;;9.43;6.47;;;;;;;;;;2088242;28;20513;-58
2024/01/21 18:09:00;;;;;;;10.45;6.65;;;;;;;;;;2088756;28;20384;-58
2024/01/21 18:10:02;;;;;;;9.77;6.68;;;;;;;;;;2084458;28;20115;-57
2024/01/21 18:11:03;;;;;;;9.85;6.88;;;;;;;;;;2087703;28;20417;-58
2024/01/21 18:12:08;;;;;;;8.93;6.75;;;;;;;;;;2087009;28;20032;-58
2024/01/21 18:13:10;;;;;;;10.73;6.95;;;;;;;;;;2078530;28;20117;-58
2024/01/21 18:14:11;;;;;;;11.75;7.30;;;;;;;;;;2081428;28;20030;-59
2024/01/21 18:15:12;;;;;;;9.88;6.85;;;;;;;;;;2085514;28;20500;-58
2024/01/21 18:18:27;;;;;;;12.93;7.00;;;;;;;;;;2128598;27;20428;-44
2024/01/21 18:19:38;;;;;;;10.90;6.88;;;;;;;;;;2121584;27;20020;-44
2024/01/21 18:20:39;;;;;;;10.38;6.68;;;;;;;;;;2121545;27;20019;-46
2024/01/21 18:21:45;;;;;;;11.00;6.38;;;;;;;;;;2118681;27;20486;-44
2024/01/21 18:22:46;;;;;;;11.95;6.93;;;;;;;;;;2111435;28;20031;-45
2024/01/21 18:23:47;;;;;;;8.13;5.82;;;;;;;;;;2106649;28;20489;-44
2024/01/21 18:24:52;;;;;;;9.30;5.70;;;;;;;;;;2114931;28;20020;-44
2024/01/21 18:25:53;;;;;;;10.65;6.57;;;;;;;;;;2105202;28;20035;-45
2024/01/21 18:26:55;;;;;;;12.88;6.97;;;;;;;;;;2107310;28;20020;-45
2024/01/21 18:27:56;;;;;;;9.80;6.38;;;;;;;;;;2118911;27;20098;-44
2024/01/21 18:28:57;;;;;;;10.68;7.20;;;;;;;;;;2121117;27;20131;-45
2024/01/21 18:30:00;;;;;;;10.13;7.03;;;;;;;;;;2104548;28;20552;-45
2024/01/21 18:31:02;;;;;;;12.93;6.93;;;;;;;;;;2111851;28;20016;-44
2024/01/21 18:32:04;;;;;;;10.52;6.82;;;;;;;;;;2111957;28;20039;-46
2024/01/21 18:33:05;;;;;;;11.73;7.35;;;;;;;;;;2104178;28;20016;-45
2024/01/21 18:34:07;;;;;;;10.00;6.97;;;;;;;;;;2111482;28;20118;-44
2024/01/21 18:35:08;;;;;;;13.00;7.43;;;;;;;;;;2112186;28;20047;-44
2024/01/21 18:36:09;;;;;;;11.10;6.75;;;;;;;;;;2121157;27;20020;-44
2024/01/21 18:37:10;;;;;;;8.88;6.80;;;;;;;;;;2121156;27;20491;-45
2024/01/21 18:38:12;;;;;;;11.18;7.38;;;;;;;;;;2121368;27;20019;-44
2024/01/21 18:39:13;;;;;;;11.73;7.85;;;;;;;;;;2118812;27;20488;-44
2024/01/21 18:40:15;;;;;;;13.05;9.57;;;;;;;;;;2105394;28;20032;-44
2024/01/21 18:41:16;;;;;;;17.85;11.65;;;;;;;;;;2112679;28;20182;-46
2024/01/21 18:42:18;;;;;;;21.08;9.98;;;;;;;;;;2120553;27;20027;-44
2024/01/21 18:43:20;;;;;;;11.75;8.38;;;;;;;;;;2121798;27;20012;-45
2024/01/21 18:44:21;;;;;;;10.35;7.70;;;;;;;;;;2121346;27;20863;-46
2024/01/21 18:45:23;;;;;;;10.38;7.35;;;;;;;;;;2121638;27;20043;-46
2024/01/21 18:46:25;;;;;;;11.45;7.82;;;;;;;;;;2121616;28;20116;-45
2024/01/21 18:47:26;;;;;;;11.25;7.95;;;;;;;;;;2112410;28;20031;-45
2024/01/21 18:48:27;;;;;;;11.88;7.20;;;;;;;;;;2111818;28;20585;-44
2024/01/21 18:49:29;;;;;;;11.20;7.72;;;;;;;;;;2121344;27;20084;-45
2024/01/21 18:50:31;;;;;;;13.27;8.27;;;;;;;;;;2109776;28;20371;-45
2024/01/21 18:51:33;;;;;;;12.93;8.27;;;;;;;;;;2112782;27;20397;-46
2024/01/21 18:52:34;;;;;;;10.25;7.65;;;;;;;;;;2120955;27;20023;-44
2024/01/21 18:53:36;;;;;;;11.80;7.85;;;;;;;;;;2121073;27;20028;-45
2024/01/21 18:54:38;;;;;;;10.82;7.63;;;;;;;;;;2112269;28;20091;-45
2024/01/21 18:55:39;;;;;;;12.23;8.25;;;;;;;;;;2112129;28;20054;-44
2024/01/21 18:56:41;;;;;;;10.65;7.88;;;;;;;;;;2112260;28;20628;-44
2024/01/21 18:57:42;;;;;;;9.65;7.53;;;;;;;;;;2121166;27;20432;-47
2024/01/21 18:58:43;;;;;;;10.85;8.27;;;;;;;;;;2119736;28;20023;-44
2024/01/21 18:59:48;;;;;;;10.93;7.72;;;;;;;;;;2119110;27;20016;-45
2024/01/21 19:00:50;;;;;;;11.93;8.20;;;;;;;;;;2118125;28;20008;-44
2024/01/21 19:01:51;;;;;;;11.85;8.00;;;;;;;;;;2108321;28;20024;-44
2024/01/21 19:02:52;;;;;;;12.50;8.65;;;;;;;;;;2106052;28;20074;-44
2024/01/21 19:03:54;;;;;;;14.10;9.00;;;;;;;;;;2120840;27;20191;-45
2024/01/21 19:04:56;;;;;;;12.35;8.90;;;;;;;;;;2118534;27;20019;-46
2024/01/21 19:05:57;;;;;;;13.75;8.65;;;;;;;;;;2116266;27;20012;-45
2024/01/21 19:06:58;;;;;;;12.02;7.93;;;;;;;;;;2120171;27;20016;-45
2024/01/21 19:07:59;;;;;;;12.63;8.77;;;;;;;;;;2118553;27;20028;-46
2024/01/21 19:09:01;;;;;;;11.43;8.23;;;;;;;;;;2119786;27;20030;-45
2024/01/21 19:10:02;;;;;;;13.55;9.02;;;;;;;;;;2109755;28;20129;-44
2024/01/21 19:11:04;;;;;;;12.10;8.93;;;;;;;;;;2108991;28;20028;-45
2024/01/21 19:12:07;;;;;;;12.02;7.93;;;;;;;;;;2119889;28;20062;-44
2024/01/21 19:13:08;;;;;;;13.02;8.70;;;;;;;;;;2115177;27;20019;-44
2024/01/21 19:14:10;;;;;;;13.02;8.95;;;;;;;;;;2107544;28;20402;-44
2024/01/21 19:15:11;;;;;;;12.45;8.27;;;;;;;;;;2111461;28;20016;-44
2024/01/21 19:16:13;;;;;;;13.25;9.00;;;;;;;;;;2120655;28;20433;-44
2024/01/21 19:17:14;;;;;;;12.65;8.70;;;;;;;;;;2120799;27;20031;-45
2024/01/21 19:18:15;;;;;;;27.55;17.63;;;;;;;;;;2120113;28;20081;-44
2024/01/21 19:19:17;;;;;;;18.80;11.18;;;;;;;;;;2120547;27;20047;-46
2024/01/21 19:20:18;;;;;;;17.27;10.32;;;;;;;;;;2120861;27;20023;-44
2024/01/21 19:21:25;;;;;;;14.32;9.98;;;;;;;;;;2120380;28;20016;-46
2024/01/21 19:22:26;;;;;;;13.77;9.52;;;;;;;;;;2115562;28;20030;-46
2024/01/21 19:23:27;;;;;;;11.40;8.23;;;;;;;;;;2111890;28;20028;-46
2024/01/21 19:24:29;;;;;;;12.38;8.63;;;;;;;;;;2114691;27;20095;-43
2024/01/21 19:25:30;;;;;;;12.50;8.77;;;;;;;;;;2120879;28;20083;-44
2024/01/21 19:26:31;;;;;;;12.75;8.48;;;;;;;;;;2097413;28;20032;-44
2024/01/21 19:27:33;;;;;;;11.85;8.40;;;;;;;;;;2102851;28;20032;-44
2024/01/21 19:28:34;;;;;;;14.63;9.70;;;;;;;;;;2119426;28;20355;-44
2024/01/21 19:29:36;;;;;;;13.75;9.85;;;;;;;;;;2114274;28;20495;-44
2024/01/21 19:30:38;;;;;;;13.75;9.50;;;;;;;;;;2113816;28;20106;-44
2024/01/21 19:31:39;;;;;;;13.52;9.20;;;;;;;;;;2107200;28;20028;-44
2024/01/21 19:32:41;;;;;;;13.00;9.95;;;;;;;;;;2110637;28;20028;-44
2024/01/21 19:33:44;;;;;;;13.02;8.82;;;;;;;;;;2111283;28;20055;-45
2024/01/21 19:34:45;;;;;;;14.15;9.80;;;;;;;;;;2114787;28;20180;-46
2024/01/21 19:35:47;;;;;;;12.85;9.25;;;;;;;;;;2104584;28;20032;-45
2024/01/21 19:36:49;;;;;;;13.55;9.10;;;;;;;;;;2103601;28;20036;-44
2024/01/21 19:37:50;;;;;;;14.18;9.10;;;;;;;;;;2114778;28;20024;-44
2024/01/21 19:38:52;;;;;;;11.82;8.40;;;;;;;;;;2115133;28;20024;-44
2024/01/21 19:39:54;;;;;;;11.32;8.35;;;;;;;;;;2105853;28;20061;-44
2024/01/21 19:40:57;;;;;;;10.77;7.90;;;;;;;;;;2105395;28;20031;-46
2024/01/21 19:41:58;;;;;;;11.30;8.50;;;;;;;;;;2114493;28;20020;-44
2024/01/21 19:42:59;;;;;;;15.05;8.38;;;;;;;;;;2112266;28;20498;-46
2024/01/21 19:44:01;;;;;;;13.55;9.57;;;;;;;;;;2111540;28;20012;-44
2024/01/21 19:45:02;;;;;;;11.70;8.40;;;;;;;;;;2106061;28;20047;-43
2024/01/21 19:46:05;;;;;;;12.70;9.10;;;;;;;;;;2105836;28;20043;-44
2024/01/21 19:47:06;;;;;;;13.68;10.23;;;;;;;;;;2114663;28;20031;-46
2024/01/21 19:48:08;;;;;;;19.08;12.98;;;;;;;;;;2115172;28;20095;-44
2024/01/21 19:49:09;;;;;;;18.52;13.35;;;;;;;;;;2105757;28;20058;-43
2024/01/21 19:50:13;;;;;;;20.17;13.05;;;;;;;;;;2097579;28;20416;-44
2024/01/21 19:51:14;;;;;;;19.67;13.70;;;;;;;;;;2106326;28;20005;-44
2024/01/21 19:52:16;;;;;;;19.70;13.70;;;;;;;;;;2109557;28;20009;-44
2024/01/21 19:53:17;;;;;;;17.20;12.27;;;;;;;;;;2107802;28;20518;-45
2024/01/21 19:54:32;;;;;;;18.35;12.80;;;;;;;;;;2104711;28;20020;-44
2024/01/21 19:55:34;;;;;;;19.00;12.70;;;;;;;;;;2105272;28;20016;-44
2024/01/21 19:56:35;;;;;;;17.60;12.90;;;;;;;;;;2114718;28;20027;-44
2024/01/21 19:57:36;;;;;;;18.63;13.20;;;;;;;;;;2114778;28;20039;-47
2024/01/21 19:58:37;;;;;;;17.70;12.02;;;;;;;;;;2113797;28;20031;-45
2024/01/21 19:59:39;;;;;;;18.85;12.55;;;;;;;;;;2114811;28;20034;-45
2024/01/21 20:00:40;;;;;;;16.08;12.00;;;;;;;;;;2103565;28;20008;-45
2024/01/21 20:01:43;;;;;;;19.38;12.00;;;;;;;;;;2105388;28;20622;-44
2024/01/21 20:02:45;;;;;;;18.15;11.75;;;;;;;;;;2113866;28;20012;-46
2024/01/21 20:03:46;;;;;;;17.58;12.02;;;;;;;;;;2112742;28;20038;-46
2024/01/21 20:04:47;;;;;;;19.20;12.68;;;;;;;;;;2114899;28;20541;-46
2024/01/21 20:05:49;;;;;;;17.83;12.50;;;;;;;;;;2113701;28;20023;-46
2024/01/21 20:06:51;;;;;;;13.57;10.10;;;;;;;;;;2109394;28;20075;-46
2024/01/21 20:07:52;;;;;;;15.10;11.45;;;;;;;;;;2103693;28;20130;-46
2024/01/21 20:08:53;;;;;;;22.30;13.45;;;;;;;;;;2101851;28;20109;-48
2024/01/21 20:09:56;;;;;;;16.85;11.43;;;;;;;;;;2104981;28;20039;-49
2024/01/21 20:10:57;;;;;;;15.77;11.07;;;;;;;;;;2105635;28;20027;-46
2024/01/21 20:11:59;;;;;;;18.95;11.15;;;;;;;;;;2113062;28;20493;-48
2024/01/21 20:13:01;;;;;;;15.13;10.32;;;;;;;;;;2107820;28;20024;-45
2024/01/21 20:14:03;;;;;;;15.15;11.57;;;;;;;;;;2098725;28;20035;-47
2024/01/21 20:15:05;;;;;;;18.02;11.35;;;;;;;;;;2098493;28;20023;-45
2024/01/21 20:16:07;;;;;;;14.57;10.70;;;;;;;;;;2112883;28;20023;-45
2024/01/21 20:17:08;;;;;;;16.33;10.90;;;;;;;;;;2114416;28;20026;-46
2024/01/21 20:18:10;;;;;;;15.57;10.35;;;;;;;;;;2111680;28;20494;-47
2024/01/21 20:19:11;;;;;;;14.75;10.65;;;;;;;;;;2114708;28;20015;-49
2024/01/21 20:20:13;;;;;;;18.73;10.13;;;;;;;;;;2109698;28;20019;-49
2024/01/21 20:21:14;;;;;;;17.23;10.23;;;;;;;;;;2105244;28;20103;-47
2024/01/21 20:22:15;;;;;;;14.73;9.98;;;;;;;;;;2105571;28;20024;-47
2024/01/21 20:23:17;;;;;;;14.65;9.00;;;;;;;;;;2105400;28;20027;-47
2024/01/21 20:24:19;;;;;;;15.15;9.68;;;;;;;;;;2094631;28;20020;-45
2024/01/21 20:25:20;;;;;;;15.88;9.90;;;;;;;;;;2103263;28;20450;-46
2024/01/21 20:26:22;;;;;;;13.05;9.63;;;;;;;;;;2104110;28;20553;-47
2024/01/21 20:27:23;;;;;;;14.18;10.00;;;;;;;;;;2105325;28;20024;-47
2024/01/21 20:28:24;;;;;;;15.07;10.13;;;;;;;;;;2114096;28;20053;-49
2024/01/21 20:29:26;;;;;;;15.25;10.52;;;;;;;;;;2113310;28;20039;-45
2024/01/21 20:30:27;;;;;;;14.38;10.23;;;;;;;;;;2114484;28;20470;-45
2024/01/21 20:31:28;;;;;;;16.25;10.60;;;;;;;;;;2113531;28;20049;-47
2024/01/21 20:32:30;;;;;;;15.43;9.93;;;;;;;;;;2104873;28;20036;-46
2024/01/21 20:33:31;;;;;;;16.08;10.48;;;;;;;;;;2105151;28;20031;-49
2024/01/21 20:34:33;;;;;;;15.32;9.68;;;;;;;;;;2114366;28;20015;-46
2024/01/21 20:35:34;;;;;;;15.20;10.60;;;;;;;;;;2114085;28;20108;-48
2024/01/21 20:36:36;;;;;;;16.17;10.52;;;;;;;;;;2114367;28;20540;-47
2024/01/21 20:37:37;;;;;;;14.18;9.48;;;;;;;;;;2112102;28;20377;-47
2024/01/21 20:38:38;;;;;;;14.38;9.32;;;;;;;;;;2114111;28;20465;-47
2024/01/21 20:39:39;;;;;;;15.10;10.43;;;;;;;;;;2112322;28;20468;-45
2024/01/21 20:40:41;;;;;;;13.65;10.00;;;;;;;;;;2113699;28;20028;-49
2024/01/21 20:41:42;;;;;;;13.05;9.52;;;;;;;;;;2113184;28;20027;-47
2024/01/21 20:42:44;;;;;;;16.05;10.40;;;;;;;;;;2111796;28;20054;-48
2024/01/21 20:43:46;;;;;;;24.83;13.07;;;;;;;;;;2114677;28;20461;-49
2024/01/21 20:44:47;;;;;;;19.13;13.02;;;;;;;;;;2114585;28;20039;-46
2024/01/21 20:45:48;;;;;;;20.08;12.55;;;;;;;;;;2112815;28;20095;-47
2024/01/21 20:46:50;;;;;;;16.10;10.38;;;;;;;;;;2113994;28;20011;-47
2024/01/21 20:47:51;;;;;;;14.15;9.60;;;;;;;;;;2113181;28;20024;-48
2024/01/21 20:48:52;;;;;;;14.50;10.05;;;;;;;;;;2110242;28;20028;-47
2024/01/21 20:49:53;;;;;;;19.98;13.10;;;;;;;;;;2114033;28;20474;-46
2024/01/21 20:50:55;;;;;;;21.40;12.20;;;;;;;;;;2096419;28;20058;-46
2024/01/21 20:51:57;;;;;;;16.70;11.77;;;;;;;;;;2096541;28;20031;-45
2024/01/21 20:52:58;;;;;;;18.90;10.45;;;;;;;;;;2114294;28;20018;-45
2024/01/21 20:53:59;;;;;;;13.68;10.00;;;;;;;;;;2114080;28;20350;-48
2024/01/21 20:55:01;;;;;;;16.67;11.02;;;;;;;;;;2115291;27;20135;-47
2024/01/21 20:56:02;;;;;;;14.52;9.15;;;;;;;;;;2113849;28;20047;-47
2024/01/21 20:57:03;;;;;;;16.20;10.23;;;;;;;;;;2113655;28;20403;-46
2024/01/21 20:58:05;;;;;;;16.85;11.30;;;;;;;;;;2114167;28;20034;-48
2024/01/21 20:59:06;;;;;;;17.55;10.25;;;;;;;;;;2105006;28;20047;-48
2024/01/21 21:00:09;;;;;;;14.55;9.82;;;;;;;;;;2104524;28;20050;-49
2024/01/21 21:01:10;;;;;;;17.55;10.52;;;;;;;;;;2113637;28;20016;-47
2024/01/21 21:02:11;;;;;;;18.15;11.18;;;;;;;;;;2112870;28;20478;-47
2024/01/21 21:03:13;;;;;;;18.60;11.60;;;;;;;;;;2101520;28;20403;-46
2024/01/21 21:04:16;;;;;;;19.15;11.75;;;;;;;;;;2099847;28;20028;-48
2024/01/21 21:05:17;;;;;;;19.75;11.43;;;;;;;;;;2110219;28;20492;-49
2024/01/21 21:06:19;;;;;;;15.65;10.93;;;;;;;;;;2099752;28;20024;-45
2024/01/21 21:07:21;;;;;;;17.85;11.38;;;;;;;;;;2102044;28;20025;-44
2024/01/21 21:08:22;;;;;;;15.90;10.93;;;;;;;;;;2101359;28;20023;-44
2024/01/21 21:09:23;;;;;;;18.10;10.73;;;;;;;;;;2098391;28;20430;-48
2024/01/21 21:10:26;;;;;;;15.85;11.00;;;;;;;;;;2112305;28;20080;-49
2024/01/21 21:11:27;;;;;;;18.85;10.80;;;;;;;;;;2113278;28;20019;-50
2024/01/21 21:12:28;;;;;;;16.38;10.73;;;;;;;;;;2114115;28;20494;-48
2024/01/21 21:13:29;;;;;;;17.25;11.45;;;;;;;;;;2103932;28;20028;-45
2024/01/21 21:14:31;;;;;;;18.63;10.80;;;;;;;;;;2104614;28;20542;-46
2024/01/21 21:15:32;;;;;;;19.73;11.63;;;;;;;;;;2113944;28;20075;-47
2024/01/21 21:16:33;;;;;;;17.83;11.52;;;;;;;;;;2113215;28;20103;-46
2024/01/21 21:17:34;;;;;;;17.15;11.88;;;;;;;;;;2113650;28;20023;-47
2024/01/21 21:18:36;;;;;;;21.00;11.93;;;;;;;;;;2112616;28;20111;-46
2024/01/21 21:19:40;;;;;;;17.60;12.18;;;;;;;;;;2113922;28;20008;-46
2024/01/21 21:20:41;;;;;;;21.23;12.13;;;;;;;;;;2113332;28;20077;-47
2024/01/21 21:21:43;;;;;;;16.75;11.82;;;;;;;;;;2104631;28;20518;-47
2024/01/21 21:22:44;;;;;;;14.60;10.95;;;;;;;;;;2104859;28;20547;-46
2024/01/21 21:23:45;;;;;;;17.15;11.27;;;;;;;;;;2113846;28;20674;-46
2024/01/21 21:24:47;;;;;;;18.52;11.18;;;;;;;;;;2114127;28;20035;-46
2024/01/21 21:25:48;;;;;;;14.38;10.55;;;;;;;;;;2114047;28;20043;-48
2024/01/21 21:26:49;;;;;;;15.75;11.02;;;;;;;;;;2112926;28;20020;-46
2024/01/21 21:27:51;;;;;;;15.60;11.35;;;;;;;;;;2104921;28;20114;-48
2024/01/21 21:28:52;;;;;;;16.75;11.38;;;;;;;;;;2096810;28;20025;-49
2024/01/21 21:29:53;;;;;;;16.13;11.65;;;;;;;;;;2102273;28;20414;-48
2024/01/21 21:30:54;;;;;;;17.10;11.65;;;;;;;;;;2111067;28;20027;-48
2024/01/21 21:31:56;;;;;;;17.25;12.23;;;;;;;;;;2114584;28;20019;-49
2024/01/21 21:33:02;;;;;;;17.60;11.80;;;;;;;;;;2105383;28;20012;-48
2024/01/21 21:34:03;;;;;;;15.20;10.85;;;;;;;;;;2106205;28;20031;-44
2024/01/21 21:35:04;;;;;;;16.17;11.48;;;;;;;;;;2114593;28;20093;-48
2024/01/21 21:36:06;;;;;;;19.48;11.48;;;;;;;;;;2111457;28;20558;-44
2024/01/21 21:37:07;;;;;;;18.02;11.68;;;;;;;;;;2109403;28;20023;-46
2024/01/21 21:38:08;;;;;;;16.55;11.52;;;;;;;;;;2110646;28;20020;-45
2024/01/21 21:39:10;;;;;;;15.05;11.00;;;;;;;;;;2111089;28;20599;-47
2024/01/21 21:40:11;;;;;;;16.30;11.05;;;;;;;;;;2112479;28;20019;-46
2024/01/21 21:41:13;;;;;;;16.88;10.93;;;;;;;;;;2114261;28;20485;-47
2024/01/21 21:42:16;;;;;;;16.23;11.00;;;;;;;;;;2113715;28;20481;-45
2024/01/21 21:43:17;;;;;;;16.05;11.60;;;;;;;;;;2114534;28;20015;-45
2024/01/21 21:44:18;;;;;;;14.15;10.25;;;;;;;;;;2114281;28;20024;-46
2024/01/21 21:45:21;;;;;;;14.98;11.43;;;;;;;;;;2114228;28;20390;-46
2024/01/21 21:46:23;;;;;;;16.30;10.80;;;;;;;;;;2105440;28;20498;-49
2024/01/21 21:47:24;;;;;;;15.45;10.77;;;;;;;;;;2102634;28;20066;-47
2024/01/21 21:48:25;;;;;;;17.02;11.15;;;;;;;;;;2102899;28;20028;-45
2024/01/21 21:49:27;;;;;;;15.15;10.55;;;;;;;;;;2109403;28;20099;-47
2024/01/21 21:50:28;;;;;;;12.57;9.40;;;;;;;;;;2114052;28;20034;-46
2024/01/21 21:51:30;;;;;;;17.42;11.02;;;;;;;;;;2105168;28;20020;-47
2024/01/21 21:52:31;;;;;;;14.30;10.60;;;;;;;;;;2104913;28;20024;-47
2024/01/21 21:53:32;;;;;;;15.75;10.45;;;;;;;;;;2113218;28;20359;-46
2024/01/21 21:54:33;;;;;;;17.50;11.40;;;;;;;;;;2114135;28;20031;-47
2024/01/21 21:55:35;;;;;;;16.38;10.73;;;;;;;;;;2114163;28;20023;-45
2024/01/21 21:56:40;;;;;;;16.35;11.88;;;;;;;;;;2114017;28;20030;-43
2024/01/21 21:57:41;;;;;;;15.32;10.63;;;;;;;;;;2112691;28;20027;-44
2024/01/21 21:58:42;;;;;;;13.90;9.98;;;;;;;;;;2114098;28;20466;-44
2024/01/21 21:59:44;;;;;;;14.57;10.25;;;;;;;;;;2105277;28;20031;-45
2024/01/21 22:00:46;;;;;;;16.10;10.80;;;;;;;;;;2105588;28;20052;-46
2024/01/21 22:01:47;;;;;;;14.30;10.52;;;;;;;;;;2114162;28;20077;-46
2024/01/21 22:02:49;;;;;;;15.52;11.40;;;;;;;;;;2114438;28;20028;-44
2024/01/21 22:03:50;;;;;;;16.17;10.48;;;;;;;;;;2112498;28;20438;-45
2024/01/21 22:04:51;;;;;;;16.45;10.73;;;;;;;;;;2111120;28;20061;-45
2024/01/21 22:05:53;;;;;;;16.70;10.35;;;;;;;;;;2102779;28;20038;-45
2024/01/21 22:06:54;;;;;;;14.93;10.02;;;;;;;;;;2103479;28;20024;-44
2024/01/21 22:07:56;;;;;;;15.23;9.93;;;;;;;;;;2108479;28;20103;-45
2024/01/21 22:08:57;;;;;;;15.65;10.88;;;;;;;;;;2115657;28;20028;-46
2024/01/21 22:09:58;;;;;;;16.88;10.68;;;;;;;;;;2110239;28;20041;-51
2024/01/21 22:10:59;;;;;;;17.63;10.60;;;;;;;;;;2111367;28;20031;-49
2024/01/21 22:12:03;;;;;;;15.75;9.95;;;;;;;;;;2112937;28;20476;-51
2024/01/21 22:13:04;;;;;;;15.60;10.43;;;;;;;;;;2112900;28;20080;-51
2024/01/21 22:14:05;;;;;;;16.00;10.25;;;;;;;;;;2112632;28;20112;-49
2024/01/21 22:15:07;;;;;;;16.77;9.90;;;;;;;;;;2100622;28;20032;-48
2024/01/21 22:16:08;;;;;;;15.55;10.07;;;;;;;;;;2101532;28;20115;-50
2024/01/21 22:17:10;;;;;;;14.25;9.13;;;;;;;;;;2111626;28;20015;-51
2024/01/21 22:18:11;;;;;;;20.15;9.68;;;;;;;;;;2097127;28;20403;-50
2024/01/21 22:19:12;;;;;;;13.10;8.35;;;;;;;;;;2100477;28;20020;-49
2024/01/21 22:20:13;;;;;;;13.68;8.23;;;;;;;;;;2104322;28;20023;-51
2024/01/21 22:21:17;;;;;;;12.55;8.73;;;;;;;;;;2103511;28;20519;-50
2024/01/21 22:22:18;;;;;;;13.18;8.23;;;;;;;;;;2117484;28;20466;-50
2024/01/21 22:23:19;;;;;;;10.32;7.25;;;;;;;;;;2109288;28;20045;-50
2024/01/21 22:24:20;;;;;;;11.93;7.90;;;;;;;;;;2108713;28;20028;-49
2024/01/21 22:25:22;;;;;;;12.65;7.82;;;;;;;;;;2114419;28;20443;-50
2024/01/21 22:26:23;;;;;;;11.90;7.20;;;;;;;;;;2103076;28;20016;-49
2024/01/21 22:27:24;;;;;;;14.52;7.60;;;;;;;;;;2104544;28;20108;-55
2024/01/21 22:28:26;;;;;;;12.30;7.28;;;;;;;;;;2109779;28;20024;-48
2024/01/21 22:29:27;;;;;;;12.70;7.38;;;;;;;;;;2100505;28;20027;-45
2024/01/21 22:30:30;;;;;;;11.60;6.88;;;;;;;;;;2088770;28;20014;-48
2024/01/21 22:31:31;;;;;;;10.95;6.32;;;;;;;;;;2096282;28;20399;-48
2024/01/21 22:32:32;;;;;;;10.88;6.82;;;;;;;;;;2100788;28;20025;-48
2024/01/21 22:33:34;;;;;;;9.15;5.70;;;;;;;;;;2114316;28;20389;-49
2024/01/21 22:34:35;;;;;;;10.07;6.65;;;;;;;;;;2113671;28;20016;-44
2024/01/21 22:35:36;;;;;;;10.95;6.68;;;;;;;;;;2114123;28;20062;-45
2024/01/21 22:36:38;;;;;;;9.00;6.10;;;;;;;;;;2105556;28;20020;-46
2024/01/21 22:37:39;;;;;;;10.48;6.68;;;;;;;;;;2096875;28;20032;-45
2024/01/21 22:38:40;;;;;;;10.15;6.78;;;;;;;;;;2104000;28;20093;-46
2024/01/21 22:39:42;;;;;;;9.20;6.38;;;;;;;;;;2114381;28;20028;-45
2024/01/21 22:40:43;;;;;;;9.27;6.32;;;;;;;;;;2111616;28;20021;-45
2024/01/21 22:41:45;;;;;;;10.10;6.50;;;;;;;;;;2110468;28;20019;-44
2024/01/21 22:42:46;;;;;;;9.88;6.30;;;;;;;;;;2105338;28;20016;-44
2024/01/21 22:43:47;;;;;;;12.50;7.13;;;;;;;;;;2105460;28;20038;-44
2024/01/21 22:44:48;;;;;;;9.55;5.95;;;;;;;;;;2113231;28;20026;-43
2024/01/21 22:45:50;;;;;;;9.52;5.97;;;;;;;;;;2114091;28;20046;-43
2024/01/21 22:46:53;;;;;;;11.00;6.32;;;;;;;;;;2114000;28;20007;-43
2024/01/21 22:47:54;;;;;;;9.23;6.50;;;;;;;;;;2111036;28;20016;-43
2024/01/21 22:48:55;;;;;;;9.88;6.53;;;;;;;;;;2112002;28;20019;-44
2024/01/21 22:49:56;;;;;;;10.02;6.90;;;;;;;;;;2102442;28;20027;-44
2024/01/21 22:50:58;;;;;;;11.13;6.47;;;;;;;;;;2105507;28;20027;-43
2024/01/21 22:51:59;;;;;;;10.85;7.20;;;;;;;;;;2114251;28;20035;-43
2024/01/21 22:53:00;;;;;;;10.50;7.13;;;;;;;;;;2113665;28;20140;-43
2024/01/21 22:54:02;;;;;;;11.70;6.72;;;;;;;;;;2105230;28;20112;-43
2024/01/21 22:55:03;;;;;;;10.88;6.72;;;;;;;;;;2105280;28;20506;-43
2024/01/21 22:56:04;;;;;;;9.85;6.30;;;;;;;;;;2113375;28;20370;-43
2024/01/21 22:57:06;;;;;;;8.88;6.43;;;;;;;;;;2106768;28;20024;-42
2024/01/21 22:58:10;;;;;;;9.10;6.75;;;;;;;;;;2111947;28;20052;-43
2024/01/21 22:59:11;;;;;;;10.68;6.57;;;;;;;;;;2100222;28;20145;-43
2024/01/21 23:00:32;;;;;;;10.65;6.60;;;;;;;;;;2108189;28;20020;-43
2024/01/21 23:01:33;;;;;;;9.35;5.95;;;;;;;;;;2114339;28;20032;-43
2024/01/21 23:02:34;;;;;;;8.70;6.28;;;;;;;;;;2108855;28;20429;-44
2024/01/21 23:03:36;;;;;;;8.23;6.55;;;;;;;;;;2114004;28;20040;-44
2024/01/21 23:04:37;;;;;;;8.70;6.28;;;;;;;;;;2112737;28;20024;-44
2024/01/21 23:05:38;;;;;;;10.10;6.60;;;;;;;;;;2110444;28;20031;-44
2024/01/21 23:06:39;;;;;;;9.25;6.60;;;;;;;;;;2115089;28;20026;-45
2024/01/21 23:07:41;;;;;;;8.35;6.07;;;;;;;;;;2115540;28;20395;-43
2024/01/21 23:08:42;;;;;;;10.07;6.72;;;;;;;;;;2113908;28;20016;-44
2024/01/21 23:09:43;;;;;;;10.00;6.90;;;;;;;;;;2116601;27;20035;-45
2024/01/21 23:10:45;;;;;;;12.10;7.22;;;;;;;;;;2106251;28;20540;-44
2024/01/21 23:11:46;;;;;;;9.57;6.60;;;;;;;;;;2106526;28;20484;-44
2024/01/21 23:12:47;;;;;;;11.68;7.70;;;;;;;;;;2115273;28;20135;-44
2024/01/21 23:13:49;;;;;;;11.98;7.35;;;;;;;;;;2115767;28;20039;-47
2024/01/21 23:14:50;;;;;;;9.77;6.63;;;;;;;;;;2115631;28;20103;-46
2024/01/21 23:15:51;;;;;;;9.18;6.28;;;;;;;;;;2115649;28;20486;-45
2024/01/21 23:16:52;;;;;;;9.25;5.82;;;;;;;;;;2115566;28;20024;-45
2024/01/21 23:17:53;;;;;;;9.15;5.80;;;;;;;;;;2095118;28;20395;-46
2024/01/21 23:18:55;;;;;;;9.18;5.63;;;;;;;;;;2090149;28;20028;-45
2024/01/21 23:19:56;;;;;;;8.73;5.50;;;;;;;;;;2113002;28;20462;-45
2024/01/21 23:20:58;;;;;;;8.57;5.43;;;;;;;;;;2115293;28;20037;-45
2024/01/21 23:21:59;;;;;;;7.95;5.30;;;;;;;;;;2115687;28;20090;-47
2024/01/21 23:23:00;;;;;;;9.07;5.38;;;;;;;;;;2115475;28;20023;-46
2024/01/21 23:24:02;;;;;;;9.90;5.80;;;;;;;;;;2115530;28;20023;-46
2024/01/21 23:25:03;;;;;;;8.35;5.45;;;;;;;;;;2115734;28;20049;-46
2024/01/21 23:26:05;;;;;;;7.70;5.30;;;;;;;;;;2115174;28;20004;-47
2024/01/21 23:27:06;;;;;;;7.15;4.82;;;;;;;;;;2115651;28;20073;-47
2024/01/21 23:28:07;;;;;;;7.15;5.15;;;;;;;;;;2115324;28;20011;-46
2024/01/21 23:29:08;;;;;;;7.63;5.60;;;;;;;;;;2115439;28;20450;-45
2024/01/21 23:30:10;;;;;;;8.15;5.15;;;;;;;;;;2115523;28;20000;-46
2024/01/21 23:31:11;;;;;;;8.75;5.50;;;;;;;;;;2115447;28;20085;-48
2024/01/21 23:32:13;;;;;;;6.60;4.90;;;;;;;;;;2114193;28;20020;-45
2024/01/21 23:33:15;;;;;;;8.90;5.30;;;;;;;;;;2115587;28;20165;-46
2024/01/21 23:34:16;;;;;;;7.82;5.30;;;;;;;;;;2115306;28;20038;-46
2024/01/21 23:35:18;;;;;;;11.02;5.70;;;;;;;;;;2115737;28;20019;-46
2024/01/21 23:36:19;;;;;;;9.45;6.18;;;;;;;;;;2115400;28;20026;-45
2024/01/21 23:37:22;;;;;;;7.00;4.97;;;;;;;;;;2114768;28;20099;-47
2024/01/21 23:38:23;;;;;;;9.75;5.65;;;;;;;;;;2115669;28;20073;-46
2024/01/21 23:39:24;;;;;;;7.18;5.45;;;;;;;;;;2115615;28;20068;-45
2024/01/21 23:40:25;;;;;;;6.38;5.03;;;;;;;;;;2115227;28;20034;-45
2024/01/21 23:41:27;;;;;;;7.45;5.20;;;;;;;;;;2115639;28;20019;-47
2024/01/21 23:42:28;;;;;;;7.45;4.90;;;;;;;;;;2106343;28;20054;-47
2024/01/21 23:43:29;;;;;;;8.13;5.68;;;;;;;;;;2106490;28;20012;-47
2024/01/21 23:44:30;;;;;;;8.15;5.35;;;;;;;;;;2106509;28;20093;-47
2024/01/21 23:45:32;;;;;;;7.03;5.40;;;;;;;;;;2106337;28;20031;-47
2024/01/21 23:46:33;;;;;;;8.27;5.75;;;;;;;;;;2106640;28;20044;-46
2024/01/21 23:47:34;;;;;;;8.20;5.13;;;;;;;;;;2099503;28;20513;-47
2024/01/21 23:48:36;;;;;;;9.48;5.30;;;;;;;;;;2099967;28;20100;-46
2024/01/21 23:49:42;;;;;;;10.73;5.72;;;;;;;;;;2106485;28;20474;-47
2024/01/21 23:50:43;;;;;;;6.43;5.18;;;;;;;;;;2115332;28;20016;-46
2024/01/21 23:51:45;;;;;;;8.10;5.43;;;;;;;;;;2115213;28;20028;-47